Munden, Kansas
Current Conditions -  °F | °C
As of 10:55 PM on Friday 19 Dec 2014 (Local Time) from KHJH Reporting Station
Haze Haze  
Wind Chill: 27°   Ceiling: 300
Heat Index: 33°   Visibility: 1.7mi
Dew Point: 32°   Wind: 6mph
Humidity: 96%   Direction: 170°S
Pressure: 30.1"   Gusts: NA
Location:  39.91°N, 97.54°W
Report Text: KHJH 200455Z AUTO 17005KT 1 3/4SM BR OVC003 00/00 A3010 RMK AO2 T00031002
Loading
Personal Weather Stations






























Interactive Weather Map New forecast layout! Learn more

10-Day Weather Forecast

Advertisements
Track Severe Weather on mobile